< Typhoon 197306 1973 Season Typhoon 197308 >
Typhoon 197307 (FRAN)
General InformationTrack Information on Google Maps || Disaster Info.ResourceGoogle EarthGE AnimationAtom FeedGeoJSON
Detalied Best Track (Time Zone = UTC)
Year Month Day Hour Lat. Long. Pressure (hPa) Wind (kt) Class Image Chart
1973 7 23 06 10.0 141.0 1008 0 2 -- Chart
1973 7 23 12 10.2 140.5 1008 0 2 -- Chart
1973 7 23 18 10.5 140.0 1008 0 2 -- Chart
1973 7 24 00 10.8 139.4 1008 0 2 -- Chart
1973 7 24 06 11.1 138.7 1008 0 2 -- Chart
1973 7 24 12 11.5 138.0 1008 0 2 -- Chart
1973 7 24 18 12.0 137.4 1008 0 2 -- Chart
1973 7 25 00 12.2 136.9 1008 0 2 -- Chart
1973 7 25 06 12.5 136.5 1008 0 2 -- Chart
1973 7 25 12 12.7 136.3 1008 0 2 -- Chart
1973 7 25 18 13.0 136.1 1008 0 2 -- Chart
1973 7 26 00 13.6 135.5 1008 0 2 -- Chart
1973 7 26 06 14.2 134.8 1008 0 2 -- Chart
1973 7 26 12 14.8 134.0 1008 0 2 -- Chart
1973 7 26 18 15.4 133.4 1008 0 2 -- Chart
1973 7 27 00 15.9 132.7 1008 0 2 -- Chart
1973 7 27 06 16.5 132.0 1006 0 2 -- Chart
1973 7 27 12 17.0 131.0 1006 0 2 -- Chart
1973 7 27 18 17.5 130.0 1006 0 2 -- Chart
1973 7 28 00 18.1 128.6 1006 0 2 -- Chart
1973 7 28 06 18.5 127.2 1004 0 2 -- Chart
1973 7 28 12 18.8 126.0 1004 0 2 -- Chart
1973 7 28 18 19.0 124.8 1002 0 2 -- Chart
1973 7 29 00 19.1 124.2 1002 0 2 -- Chart
1973 7 29 06 19.6 123.5 1000 0 9 -- Chart
1973 7 29 12 20.2 123.0 1005 0 9 -- Chart
1973 7 29 18 20.9 122.5 1005 0 9 -- Chart
1973 7 30 00 21.6 122.0 1006 0 2 -- Chart
Japan Meteorological Agency Best Track Data | Correction Date : 1989-06-01
< Typhoon 197306 1973 Season Typhoon 197308 >

Help